METAR AND TAF INFORMATION
METAR FOR UAUU
ADDS - METARS form results

(1900 UTC 28 September 2021)
Data provider http://aviationweather.gov/metar/data/
 
Forecast for: UAUU (KOSTANAY , KZ)
Text: TAF UAUU 281101Z 2812/2821 04007G12MPS 5000 -SHRA BR BKN011CB
Forecast period: 1200 to 2100 UTC 28 September 2021
Forecast type: FROM: standard forecast or significant change
Winds: from the NE (40 degrees) at 16 MPH (14 knots; 7.2 m/s)
gusting to 26 MPH (23 knots; 11.8 m/s)
Visibility: 3 miles (5 km)
Ceiling: 1100 feet AGL
Clouds: broken clouds at 1100 feet AGL
Weather: -SHRA BR  (light rain showers, mist)
Text: TEMPO 2812/2821 2000 SHSNRA BKN005 BKN011CB
Forecast period: 1200 to 2100 UTC 28 September 2021
Forecast type: TEMPORARY: The following changes expected for less than half the time period
Visibility: 1.24 miles (2.00 km)
Ceiling: 500 feet AGL
Clouds: broken clouds at 500 feet AGL
broken clouds at 1100 feet AGL
Weather: SHSN SHRA  (snow showers, rain showers)

 AIRPORT MAP

 RUNWAY INFORMATION

 AIRPORT FREQUENCIES
Type TWR Name TWR Frequency 129.3 MHZ

 AIRPORT NEAR NAVIGATION AIDS
Type NDB Name Kostanay Frequency 512 KHZ
Type NDB Name Kostanay Frequency 512 KHZ



2018 Air Astana Virtual Airline